Time;durP1;ratioP1;P1;durP2;ratioP2;P2;SDS_P1;SDS_P2;PMS_P1;PMS_P2;Temp;Humidity;BMP_temperature;BMP_pressure;BME280_temperature;BME280_humidity;BME280_pressure;Samples;Min_cycle;Max_cycle;Signal;HPM_P1;HPM_P2
2022/08/09 00:02:32;;;;;;;10.50;5.10;;;;;;;16.85;76.76;102508.22;5263744;28;20453;-76
2022/08/09 00:05:04;;;;;;;6.07;4.03;;;;;;;16.83;76.93;102511.75;5263690;28;20099;-76
2022/08/09 00:07:36;;;;;;;8.57;4.70;;;;;;;16.95;77.10;102512.53;5261940;28;20039;-76
2022/08/09 00:10:08;;;;;;;7.33;4.00;;;;;;;16.81;76.92;102511.78;5263997;28;20028;-76
2022/08/09 00:12:39;;;;;;;5.45;4.25;;;;;;;16.85;76.76;102504.72;5263487;28;20027;-76
2022/08/09 00:15:11;;;;;;;6.80;4.40;;;;;;;16.69;77.35;102501.38;5263533;28;20398;-76
2022/08/09 00:17:42;;;;;;;6.63;4.30;;;;;;;16.75;77.71;102502.16;5263833;28;20390;-76
2022/08/09 00:20:14;;;;;;;11.30;5.20;;;;;;;16.60;77.85;102497.09;5263321;28;20441;-76
2022/08/09 00:22:45;;;;;;;7.57;4.03;;;;;;;16.62;78.40;102495.31;5263519;28;20116;-76
2022/08/09 00:25:16;;;;;;;8.77;5.23;;;;;;;16.54;78.45;102497.16;5245534;28;20074;-77
2022/08/09 00:27:48;;;;;;;8.10;3.90;;;;;;;16.62;78.56;102495.31;5263447;28;20405;-76
2022/08/09 00:30:19;;;;;;;6.63;4.40;;;;;;;16.59;78.25;102500.59;5263327;28;20497;-76
2022/08/09 00:32:51;;;;;;;5.60;4.50;;;;;;;16.52;78.51;102498.94;5263483;28;20359;-76
2022/08/09 00:35:22;;;;;;;8.70;4.70;;;;;;;16.61;79.31;102497.94;5263451;28;20036;-76
2022/08/09 00:37:54;;;;;;;13.23;4.87;;;;;;;16.51;78.58;102489.28;5261540;28;20124;-76
2022/08/09 00:40:25;;;;;;;6.40;4.60;;;;;;;16.44;78.61;102499.00;5263290;28;20037;-76
2022/08/09 00:42:56;;;;;;;6.43;4.30;;;;;;;16.48;78.86;102497.22;5263203;28;20444;-76
2022/08/09 00:45:28;;;;;;;7.87;4.50;;;;;;;16.35;79.15;102493.81;5263231;28;20036;-76
2022/08/09 00:48:00;;;;;;;6.77;4.43;;;;;;;16.35;79.21;102505.22;5263109;28;20064;-76
2022/08/09 00:50:32;;;;;;;7.22;4.65;;;;;;;16.29;79.13;102496.50;5261536;28;20033;-77
2022/08/09 00:53:04;;;;;;;7.73;4.27;;;;;;;16.46;78.63;102506.88;5263175;28;20033;-76
2022/08/09 00:55:35;;;;;;;;;;;;;;;16.61;76.50;102500.59;5264461;28;20056;-76
2022/08/09 00:58:07;;;;;;;5.80;4.03;;;;;;;16.44;78.65;102499.00;5265548;28;19909;-76
2022/08/09 01:00:41;;;;;;;5.43;4.00;;;;;;;16.41;78.54;102502.53;5265172;28;20078;-76
2022/08/09 01:03:40;;;;;;;5.82;4.18;;;;;;;16.44;78.85;102500.75;5262477;28;20029;-76
2022/08/09 01:06:27;;;;;;;6.40;4.18;;;;;;;16.37;78.62;102505.19;5262522;28;20090;-76
2022/08/09 01:09:12;;;;;;;5.72;4.03;;;;;;;16.36;78.71;102499.06;5263143;28;20106;-76
2022/08/09 01:12:02;;;;;;;4.90;4.05;;;;;;;16.38;79.60;102492.03;5262755;28;20481;-75
2022/08/09 01:14:39;;;;;;;9.05;4.25;;;;;;;16.20;78.97;102503.59;5262380;28;20036;-76
2022/08/09 01:17:18;;;;;;;5.40;4.03;;;;;;;16.21;79.42;102504.47;5261475;28;20048;-76
2022/08/09 01:19:57;;;;;;;6.88;4.20;;;;;;;16.13;79.40;102498.41;5262386;28;20056;-76
2022/08/09 01:22:44;;;;;;;6.28;4.53;;;;;;;16.13;79.32;102496.66;5262297;28;20052;-76
2022/08/09 01:25:53;;;;;;;7.32;4.63;;;;;;;16.10;79.49;102501.06;5262319;28;20037;-76
2022/08/09 01:28:25;;;;;;;9.68;4.10;;;;;;;16.02;79.67;102504.63;5262202;28;20033;-76
2022/08/09 01:30:59;;;;;;;7.13;4.60;;;;;;;15.96;79.53;102509.94;5262217;28;20124;-76
2022/08/09 01:33:36;;;;;;;7.70;4.85;;;;;;;16.03;80.51;102498.50;5262393;28;20093;-76
2022/08/09 01:36:12;;;;;;;5.75;4.18;;;;;;;15.96;80.75;102504.69;5261732;28;20397;-76
2022/08/09 01:38:47;;;;;;;9.05;5.05;;;;;;;15.76;80.60;102501.28;5262323;28;20053;-77
2022/08/09 01:41:24;;;;;;;8.35;5.03;;;;;;;15.89;80.70;102496.84;5261996;28;20102;-77
2022/08/09 01:44:01;;;;;;;7.40;4.88;;;;;;;15.80;81.08;102498.66;5264820;28;20041;-75
2022/08/09 01:46:37;;;;;;;7.40;4.70;;;;;;;15.77;80.94;102495.19;5263055;28;20154;-76
2022/08/09 01:49:12;;;;;;;7.75;4.60;;;;;;;15.71;80.91;102495.19;5262489;28;20044;-77
2022/08/09 01:52:06;;;;;;;7.82;4.60;;;;;;;15.75;81.04;102494.31;5261664;28;20153;-77
2022/08/09 01:54:51;;;;;;;8.45;4.32;;;;;;;15.60;81.27;102500.50;5261605;28;20028;-77
2022/08/09 01:57:36;;;;;;;6.82;4.75;;;;;;;15.56;81.51;102491.78;5262561;28;20474;-77
2022/08/09 02:00:09;;;;;;;10.07;5.00;;;;;;;15.56;81.79;102502.28;5261706;28;20025;-76
2022/08/09 02:02:45;;;;;;;7.03;4.45;;;;;;;15.56;81.71;102507.53;5262000;28;20115;-77
2022/08/09 02:05:20;;;;;;;7.90;4.97;;;;;;;15.56;81.68;102507.53;5262604;28;20025;-76
2022/08/09 02:07:58;;;;;;;5.63;4.30;;;;;;;15.58;81.79;102510.16;5261369;28;20428;-74
2022/08/09 02:10:34;;;;;;;6.25;4.70;;;;;;;15.42;82.05;102519.91;5261651;28;20067;-76
2022/08/09 02:13:08;;;;;;;7.15;5.03;;;;;;;15.23;82.35;102514.75;5264557;28;20466;-76
2022/08/09 02:15:44;;;;;;;9.27;4.63;;;;;;;15.17;82.91;102514.78;5264787;28;20033;-76
2022/08/09 02:18:22;;;;;;;4.85;4.25;;;;;;;15.40;82.80;102512.00;5266275;28;20033;-76
2022/08/09 02:20:57;;;;;;;7.40;4.57;;;;;;;15.24;82.92;102513.84;5265615;28;20257;-76
2022/08/09 02:23:36;;;;;;;6.95;4.80;;;;;;;15.22;83.13;102513.00;5265789;28;20055;-75
2022/08/09 02:26:11;;;;;;;8.18;5.10;;;;;;;15.18;83.08;102510.38;5266328;28;20029;-76
2022/08/09 02:28:48;;;;;;;7.65;5.07;;;;;;;15.08;83.35;102506.91;5264821;28;20033;-76
2022/08/09 02:31:26;;;;;;;10.20;5.00;;;;;;;15.18;83.71;102505.13;5267628;28;20049;-76
2022/08/09 02:34:05;;;;;;;7.18;4.65;;;;;;;14.99;83.83;102499.06;5267104;28;20025;-76
2022/08/09 02:36:42;;;;;;;7.90;5.10;;;;;;;14.89;84.16;102499.13;5265603;28;20068;-76
2022/08/09 02:39:21;;;;;;;5.22;4.38;;;;;;;14.90;84.33;102506.09;5265720;28;20108;-77
2022/08/09 02:41:57;;;;;;;9.75;5.55;;;;;;;14.89;84.74;102503.47;5265488;28;20049;-76
2022/08/09 02:44:45;;;;;;;7.70;4.53;;;;;;;14.94;84.72;102505.22;5265644;28;20029;-76
2022/08/09 02:47:20;;;;;;;7.32;4.95;;;;;;;14.82;84.98;102502.63;5265276;28;20112;-77
2022/08/09 02:50:01;;;;;;;7.43;5.82;;;;;;;14.97;85.07;102500.84;5264293;28;20029;-77
2022/08/09 02:52:45;;;;;;;7.07;5.72;;;;;;;14.92;84.66;102495.59;5265211;28;20033;-78
2022/08/09 02:55:17;;;;;;;6.63;5.20;;;;;;;14.92;84.66;102503.47;5265252;28;20094;-78
2022/08/09 02:57:50;;;;;;;;;;;;;;;15.09;82.61;102504.28;5265661;28;20029;-77
2022/08/09 03:00:23;;;;;;;8.55;5.20;;;;;;;14.88;84.58;102501.75;5265127;28;19956;-76
2022/08/09 03:02:56;;;;;;;6.35;4.88;;;;;;;14.86;84.84;102492.97;5264994;28;20039;-76
2022/08/09 03:05:29;;;;;;;6.07;4.70;;;;;;;14.83;84.68;102493.88;5265623;28;20478;-76
2022/08/09 03:08:03;;;;;;;7.75;5.60;;;;;;;14.71;85.38;102501.78;5264785;28;20039;-76
2022/08/09 03:10:37;;;;;;;10.73;5.93;;;;;;;14.63;85.22;102495.69;5264705;28;20036;-77
2022/08/09 03:13:09;;;;;;;8.13;5.15;;;;;;;14.57;85.45;102496.53;5264462;28;20083;-75
2022/08/09 03:15:42;;;;;;;8.68;5.90;;;;;;;14.63;86.13;102498.31;5263663;28;20033;-76
2022/08/09 03:18:14;;;;;;;9.73;7.30;;;;;;;14.56;86.19;102502.66;5263923;28;20033;-76
2022/08/09 03:20:47;;;;;;;11.50;5.67;;;;;;;14.50;86.44;102505.31;5263619;28;20441;-76
2022/08/09 03:23:19;;;;;;;6.47;5.55;;;;;;;14.47;86.66;102502.69;5264609;28;20039;-76
2022/08/09 03:25:51;;;;;;;9.60;6.07;;;;;;;14.59;86.73;102497.41;5264611;28;20397;-76
2022/08/09 03:28:24;;;;;;;;;;;;;;;14.68;84.47;102499.16;5265367;28;20029;-76
2022/08/09 03:30:57;;;;;;;9.95;5.70;;;;;;;14.46;86.27;102503.53;5264382;28;19909;-77
2022/08/09 03:33:30;;;;;;;9.27;6.55;;;;;;;14.40;87.03;102492.19;5264621;28;20385;-76
2022/08/09 03:36:01;;;;;;;;;;;;;;;14.55;84.70;102500.91;5264661;28;20033;-76
2022/08/09 03:38:38;;;;;;;8.43;5.38;;;;;;;14.37;87.05;102502.69;5264634;28;20380;-76
2022/08/09 03:41:14;;;;;;;7.40;6.00;;;;;;;14.27;87.78;102505.34;5264264;28;20028;-76
2022/08/09 03:43:46;;;;;;;8.40;6.15;;;;;;;14.27;87.72;102500.97;5264401;28;20059;-76
2022/08/09 03:46:18;;;;;;;;;;;;;;;14.41;85.39;102504.44;5264795;28;20029;-76
2022/08/09 03:48:55;;;;;;;8.30;6.15;;;;;;;14.18;87.66;102493.97;5246125;28;19961;-76
2022/08/09 03:51:29;;;;;;;7.22;6.28;;;;;;;14.33;88.15;102500.06;5264191;28;20028;-75
2022/08/09 03:54:01;;;;;;;9.10;6.28;;;;;;;14.19;88.26;102508.81;5263981;28;20025;-76
2022/08/09 03:56:32;;;;;;;8.90;6.07;;;;;;;14.18;88.33;102499.22;5262999;28;20040;-76
2022/08/09 03:59:04;;;;;;;7.93;6.30;;;;;;;14.17;88.87;102500.09;5264170;28;20037;-76
2022/08/09 04:01:37;;;;;;;8.23;6.20;;;;;;;14.14;88.53;102507.97;5265651;28;20382;-75
2022/08/09 04:04:11;;;;;;;9.25;6.75;;;;;;;14.20;88.91;102510.59;5280090;28;20124;-76
2022/08/09 04:06:42;;;;;;;12.43;6.25;;;;;;;14.06;89.12;102499.22;5270131;28;20116;-75
2022/08/09 04:09:14;;;;;;;7.63;6.70;;;;;;;14.10;89.00;102502.72;5264010;28;20286;-76
2022/08/09 04:12:04;;;;;;;9.47;6.40;;;;;;;14.14;89.44;102500.09;5262336;28;20458;-76
2022/08/09 04:14:39;;;;;;;8.57;6.47;;;;;;;14.06;89.42;102507.09;5263820;28;20505;-75
2022/08/09 04:17:10;;;;;;;9.52;6.55;;;;;;;14.00;89.39;102492.22;5263617;28;20033;-75
2022/08/09 04:19:42;;;;;;;9.93;6.97;;;;;;;13.94;89.50;102493.97;5262126;28;20095;-76
2022/08/09 04:22:13;;;;;;;8.80;6.60;;;;;;;13.95;89.85;102493.97;5263077;28;20594;-75
2022/08/09 04:24:44;;;;;;;13.90;7.00;;;;;;;14.02;89.54;102500.97;5263503;28;20086;-75
2022/08/09 04:27:16;;;;;;;8.27;6.47;;;;;;;13.95;89.72;102501.81;5263366;28;20047;-75
2022/08/09 04:29:48;;;;;;;10.70;6.93;;;;;;;13.96;89.72;102510.56;5261897;28;20041;-74
2022/08/09 04:32:19;;;;;;;10.77;6.90;;;;;;;13.92;90.00;102503.56;5262826;28;20597;-75
2022/08/09 04:34:51;;;;;;;11.70;7.50;;;;;;;13.93;90.20;102521.06;5262658;28;20032;-74
2022/08/09 04:37:22;;;;;;;8.40;6.83;;;;;;;13.96;90.14;102528.91;5261589;28;20060;-75
2022/08/09 04:39:53;;;;;;;10.77;7.20;;;;;;;13.97;90.46;102530.66;5262893;28;20045;-76
2022/08/09 04:42:28;;;;;;;8.17;6.70;;;;;;;13.97;90.58;102518.41;5263254;28;20136;-76
2022/08/09 04:45:00;;;;;;;11.10;6.70;;;;;;;13.96;90.56;102531.53;5262778;28;20037;-76
2022/08/09 04:47:31;;;;;;;10.07;7.07;;;;;;;14.12;90.50;102527.16;5274738;28;20047;-75
2022/08/09 04:50:03;;;;;;;9.87;7.17;;;;;;;14.06;90.70;102527.19;5286655;28;20028;-78
2022/08/09 04:52:34;;;;;;;12.67;7.43;;;;;;;14.07;90.39;102523.69;5300321;28;20067;-75
2022/08/09 04:55:06;;;;;;;8.60;7.10;;;;;;;14.13;90.55;102535.03;5286271;28;20033;-75
2022/08/09 04:57:38;;;;;;;10.00;7.20;;;;;;;14.02;90.69;102537.69;5283209;28;20043;-76
2022/08/09 05:00:10;;;;;;;11.60;7.40;;;;;;;14.00;90.73;102528.91;5281938;28;20271;-76
2022/08/09 05:02:43;;;;;;;10.60;7.25;;;;;;;14.02;91.06;102534.16;5283131;28;20039;-76
2022/08/09 05:05:14;;;;;;;11.95;7.95;;;;;;;14.01;91.39;102538.53;5283290;28;20029;-75
2022/08/09 05:07:45;;;;;;;8.33;7.30;;;;;;;14.05;91.51;102544.66;5281472;28;20036;-75
2022/08/09 05:10:17;;;;;;;10.50;8.20;;;;;;;14.02;91.71;102550.78;5283592;28;20039;-75
2022/08/09 05:12:49;;;;;;;9.90;7.63;;;;;;;14.07;91.37;102550.81;5282225;28;20051;-76
2022/08/09 05:15:20;;;;;;;10.75;8.43;;;;;;;14.12;91.68;102548.16;5283365;28;20116;-75
2022/08/09 05:17:52;;;;;;;8.87;7.67;;;;;;;14.19;91.63;102558.66;5281719;28;20154;-76
2022/08/09 05:20:26;;;;;;;11.93;8.27;;;;;;;14.20;91.70;102549.06;5282966;28;20037;-76
2022/08/09 05:22:59;;;;;;;10.88;7.57;;;;;;;14.24;91.75;102550.78;5283038;28;20469;-75
2022/08/09 05:25:30;;;;;;;9.75;8.05;;;;;;;14.25;91.63;102542.06;5282946;28;20032;-76
2022/08/09 05:28:02;;;;;;;8.70;7.43;;;;;;;14.30;92.02;102542.06;5283251;28;20473;-75
2022/08/09 05:30:33;;;;;;;12.40;8.47;;;;;;;14.38;92.09;102545.56;5282705;28;20559;-75
2022/08/09 05:33:05;;;;;;;10.73;7.90;;;;;;;14.37;92.08;102544.66;5282609;28;20044;-76
2022/08/09 05:35:36;;;;;;;11.20;8.47;;;;;;;14.42;92.05;102542.03;5282944;28;20032;-75
2022/08/09 05:38:07;;;;;;;10.13;7.90;;;;;;;14.47;92.23;102545.53;5287910;28;20054;-75
2022/08/09 05:40:39;;;;;;;9.97;9.00;;;;;;;14.53;92.00;102537.66;5301860;28;20070;-75
2022/08/09 05:43:10;;;;;;;12.30;8.17;;;;;;;14.63;92.11;102542.94;5286057;28;20044;-77
2022/08/09 05:45:42;;;;;;;12.57;8.37;;;;;;;14.68;91.85;102549.03;5283199;28;20025;-75
2022/08/09 05:48:13;;;;;;;11.33;9.07;;;;;;;14.76;92.34;102553.41;5281119;28;20028;-76
2022/08/09 05:50:45;;;;;;;14.00;9.83;;;;;;;14.78;91.99;102558.66;5283232;28;20056;-76
2022/08/09 05:53:17;;;;;;;12.52;9.57;;;;;;;14.87;91.93;102552.50;5281299;28;20033;-76
2022/08/09 05:55:48;;;;;;;12.97;9.43;;;;;;;14.94;91.78;102554.22;5281361;28;20060;-76
2022/08/09 05:58:19;;;;;;;12.80;9.30;;;;;;;15.05;92.40;102559.44;5282522;28;20037;-76
2022/08/09 06:00:51;;;;;;;11.93;8.30;;;;;;;15.10;91.74;102560.31;5282547;28;20484;-75
2022/08/09 06:03:22;;;;;;;10.93;9.27;;;;;;;15.18;91.04;102562.91;5281045;28;20123;-77
2022/08/09 06:05:54;;;;;;;16.73;9.47;;;;;;;15.24;91.08;102569.00;5282130;28;20071;-76
2022/08/09 06:08:25;;;;;;;14.53;10.90;;;;;;;15.30;91.52;102566.38;5281578;28;20028;-76
2022/08/09 06:10:57;;;;;;;11.07;9.23;;;;;;;15.39;90.97;102568.09;5280887;28;20033;-76
2022/08/09 06:13:29;;;;;;;15.20;9.25;;;;;;;15.47;90.63;102573.28;5280859;28;20032;-77
2022/08/09 06:16:04;;;;;;;10.00;8.52;;;;;;;15.52;91.25;102571.53;5282101;28;20035;-76
2022/08/09 06:18:35;;;;;;;12.23;9.18;;;;;;;15.60;90.61;102572.38;5281911;28;20041;-77
2022/08/09 06:21:07;;;;;;;10.73;9.23;;;;;;;15.69;90.22;102582.81;5281812;28;20111;-77
2022/08/09 06:23:38;;;;;;;13.67;9.70;;;;;;;15.77;90.29;102589.84;5282029;28;20036;-76
2022/08/09 06:26:10;;;;;;;13.50;9.00;;;;;;;15.85;89.47;102581.00;5281986;28;20480;-76
2022/08/09 06:28:41;;;;;;;13.60;8.53;;;;;;;15.87;89.48;102578.38;5280635;28;20466;-78
2022/08/09 06:31:12;;;;;;;10.83;8.30;;;;;;;15.96;89.20;102586.22;5282046;28;20551;-76
2022/08/09 06:33:44;;;;;;;13.47;10.43;;;;;;;15.99;88.71;102573.03;5247270;28;20481;-76
2022/08/09 06:36:15;;;;;;;15.03;9.17;;;;;;;16.12;88.89;102586.13;5280393;28;20090;-83
2022/08/09 06:38:46;;;;;;;10.00;8.90;;;;;;;16.24;88.37;102596.53;5281122;28;20079;-76
2022/08/09 06:41:18;;;;;;;11.33;8.53;;;;;;;16.32;88.00;102592.09;5282020;28;20093;-76
2022/08/09 06:43:49;;;;;;;11.27;9.50;;;;;;;16.41;87.78;102585.88;5282116;28;20063;-76
2022/08/09 06:46:21;;;;;;;12.10;9.60;;;;;;;16.51;87.50;102587.53;5282621;28;20483;-77
2022/08/09 06:48:52;;;;;;;11.30;10.07;;;;;;;16.57;86.86;102581.38;5282134;28;20036;-77
2022/08/09 06:51:24;;;;;;;16.37;10.67;;;;;;;16.69;87.50;102585.63;5281791;28;20039;-76
2022/08/09 06:53:55;;;;;;;15.97;9.20;;;;;;;16.81;86.27;102589.91;5281697;28;20064;-77
2022/08/09 06:56:27;;;;;;;13.07;8.93;;;;;;;16.81;85.92;102593.41;5281618;28;20036;-76
2022/08/09 06:58:58;;;;;;;13.00;9.32;;;;;;;16.92;86.28;102588.94;5283820;28;20111;-76
2022/08/09 07:01:30;;;;;;;12.17;9.80;;;;;;;17.02;85.23;102594.13;5284290;28;20043;-76
2022/08/09 07:04:01;;;;;;;13.97;9.30;;;;;;;17.08;85.90;102599.31;5284171;28;20058;-76
2022/08/09 07:06:34;;;;;;;11.07;9.10;;;;;;;17.21;86.00;102600.03;5283899;28;20032;-76
2022/08/09 07:09:05;;;;;;;11.63;9.35;;;;;;;17.32;83.58;102600.78;5285326;28;20064;-77
2022/08/09 07:11:37;;;;;;;10.57;8.27;;;;;;;17.45;83.39;102605.03;5285620;28;20120;-77
2022/08/09 07:14:08;;;;;;;11.68;8.75;;;;;;;17.53;82.64;102604.91;5285312;28;20070;-76
2022/08/09 07:16:40;;;;;;;13.47;9.43;;;;;;;17.63;82.14;102609.19;5284134;28;20116;-77
2022/08/09 07:19:12;;;;;;;13.70;9.53;;;;;;;17.72;81.71;102604.69;5285162;28;20086;-77
2022/08/09 07:21:44;;;;;;;14.77;9.52;;;;;;;17.77;82.61;102598.44;5285383;28;20454;-76
2022/08/09 07:24:15;;;;;;;9.65;8.27;;;;;;;17.88;82.26;102600.97;5285051;28;20028;-77
2022/08/09 07:26:46;;;;;;;11.80;8.93;;;;;;;17.94;80.90;102594.75;5285222;28;20377;-77
2022/08/09 07:29:18;;;;;;;10.93;8.53;;;;;;;18.12;79.83;102609.41;5285136;28;20103;-77
2022/08/09 07:31:49;;;;;;;11.83;8.33;;;;;;;18.20;81.61;102602.25;5283776;28;20036;-77
2022/08/09 07:34:21;;;;;;;13.07;8.50;;;;;;;18.34;80.19;102604.69;5285129;28;20373;-76
2022/08/09 07:36:52;;;;;;;9.17;7.97;;;;;;;18.45;82.02;102605.38;5284756;28;20102;-77
2022/08/09 07:39:24;;;;;;;11.53;8.73;;;;;;;18.58;78.92;102606.91;5285164;28;20533;-77
2022/08/09 07:41:55;;;;;;;12.70;8.77;;;;;;;18.69;77.63;102604.06;5284718;28;20083;-77
2022/08/09 07:44:26;;;;;;;11.10;8.53;;;;;;;18.71;78.82;102598.78;5283320;28;20033;-76
2022/08/09 07:46:58;;;;;;;14.30;9.17;;;;;;;18.73;77.77;102603.09;5283370;28;20048;-76
2022/08/09 07:49:29;;;;;;;11.23;8.67;;;;;;;18.81;76.42;102602.97;5284518;28;20037;-76
2022/08/09 07:52:00;;;;;;;10.40;8.03;;;;;;;18.88;77.18;102601.97;5284354;28;20119;-76
2022/08/09 07:54:33;;;;;;;13.47;8.87;;;;;;;19.00;76.04;102603.53;5284262;28;20057;-76
2022/08/09 07:57:04;;;;;;;9.48;7.65;;;;;;;19.03;75.11;102610.50;5284632;28;20415;-76
2022/08/09 07:59:35;;;;;;;12.50;8.37;;;;;;;19.15;75.59;102606.78;5283519;28;20082;-76
2022/08/09 08:02:07;;;;;;;11.10;8.83;;;;;;;19.24;75.05;102603.94;5284511;28;20111;-78
2022/08/09 08:04:40;;;;;;;14.60;7.83;;;;;;;19.46;75.45;102609.66;5284299;28;20024;-77
2022/08/09 08:07:11;;;;;;;13.07;7.82;;;;;;;19.61;74.02;102614.63;5282466;28;20481;-77
2022/08/09 08:09:43;;;;;;;8.33;7.53;;;;;;;19.72;72.73;102624.09;5283795;28;20032;-79
2022/08/09 08:12:14;;;;;;;13.87;7.20;;;;;;;19.73;71.71;102623.22;5284253;28;20044;-78
2022/08/09 08:14:45;;;;;;;9.80;7.40;;;;;;;19.85;71.79;102615.91;5284127;28;20060;-76
2022/08/09 08:17:17;;;;;;;11.10;8.00;;;;;;;19.98;71.62;102619.13;5282706;28;20036;-76
2022/08/09 08:19:48;;;;;;;10.33;7.73;;;;;;;20.07;72.60;102617.19;5283918;28;20029;-76
2022/08/09 08:22:20;;;;;;;12.30;8.00;;;;;;;20.10;73.19;102620.63;5282853;28;20021;-76
2022/08/09 08:24:54;;;;;;;7.87;6.60;;;;;;;20.21;71.41;102610.63;5282824;28;20101;-76
2022/08/09 08:27:26;;;;;;;12.38;7.72;;;;;;;20.33;70.65;102611.25;5283891;28;20436;-76
2022/08/09 08:29:57;;;;;;;7.60;6.30;;;;;;;20.39;71.47;102605.81;5283909;28;20074;-76
2022/08/09 08:32:29;;;;;;;8.73;6.37;;;;;;;20.43;67.82;102607.47;5283585;28;20058;-76
2022/08/09 08:35:01;;;;;;;10.88;6.10;;;;;;;20.44;67.44;102618.94;5282437;28;20025;-76
2022/08/09 08:37:34;;;;;;;9.65;6.38;;;;;;;20.45;68.11;102615.34;5283587;28;20025;-75
2022/08/09 08:40:06;;;;;;;7.72;6.03;;;;;;;20.57;66.51;102612.41;5283507;28;20119;-76
2022/08/09 08:42:38;;;;;;;11.65;5.65;;;;;;;20.65;65.74;102617.53;5282320;28;20466;-76
2022/08/09 08:45:11;;;;;;;8.85;5.13;;;;;;;20.77;66.93;102609.28;5283772;28;20036;-76
2022/08/09 08:47:44;;;;;;;10.80;5.82;;;;;;;20.81;66.57;102610.06;5283578;28;20447;-77
2022/08/09 08:50:16;;;;;;;7.97;5.88;;;;;;;20.80;68.30;102610.97;5283510;28;20028;-75
2022/08/09 08:52:48;;;;;;;11.82;6.35;;;;;;;20.92;67.04;102610.66;5283372;28;20071;-76
2022/08/09 08:55:19;;;;;;;7.43;3.90;;;;;;;21.21;64.96;102609.81;5283266;28;20468;-77
2022/08/09 08:57:52;;;;;;;6.00;3.67;;;;;;;21.25;62.98;102610.59;5283509;28;20353;-77
2022/08/09 09:00:30;;;;;;;8.73;4.22;;;;;;;21.40;65.82;102618.13;5283263;28;20056;-76
2022/08/09 09:03:03;;;;;;;6.70;3.20;;;;;;;21.55;63.84;102621.28;5283251;28;20400;-77
2022/08/09 09:05:35;;;;;;;5.63;3.45;;;;;;;21.62;60.73;102620.16;5282862;28;20036;-77
2022/08/09 09:08:08;;;;;;;8.13;3.55;;;;;;;21.56;62.30;102625.66;5281647;28;20037;-76
2022/08/09 09:10:42;;;;;;;6.40;3.63;;;;;;;21.75;60.35;102628.63;5283002;28;20073;-76
2022/08/09 09:13:16;;;;;;;5.18;3.03;;;;;;;21.84;60.19;102631.84;5281769;28;20032;-76
2022/08/09 09:15:48;;;;;;;6.18;3.00;;;;;;;21.98;59.56;102631.44;5282814;28;20036;-75
2022/08/09 09:18:19;;;;;;;4.00;2.60;;;;;;;22.01;59.56;102647.28;5283060;28;20032;-76
2022/08/09 09:20:51;;;;;;;10.10;4.03;;;;;;;22.01;59.09;102633.13;5282768;28;20334;-77
2022/08/09 09:23:42;;;;;;;7.00;2.73;;;;;;;22.22;60.53;102640.41;5282812;28;20033;-76
2022/08/09 09:26:14;;;;;;;5.82;2.90;;;;;;;22.22;58.30;102631.59;5282505;28;20108;-77
2022/08/09 09:28:47;;;;;;;7.50;3.42;;;;;;;22.42;57.53;102643.38;5282721;28;20032;-78
2022/08/09 09:31:19;;;;;;;4.97;2.58;;;;;;;22.40;56.48;102641.63;5283037;28;20424;-77
2022/08/09 09:33:50;;;;;;;4.45;2.40;;;;;;;22.48;57.33;102640.50;5282658;28;20039;-77
2022/08/09 09:36:21;;;;;;;6.43;2.80;;;;;;;22.68;57.62;102639.81;5282484;28;20086;-75
2022/08/09 09:38:55;;;;;;;3.40;1.70;;;;;;;22.69;57.96;102630.94;5280842;28;20112;-76
2022/08/09 09:41:29;;;;;;;7.03;2.95;;;;;;;22.75;55.24;102631.59;5281997;28;20090;-77
2022/08/09 09:44:04;;;;;;;5.25;2.30;;;;;;;23.04;54.38;102623.47;5281328;28;20485;-77
2022/08/09 09:46:37;;;;;;;6.57;2.65;;;;;;;23.39;56.90;102626.66;5282706;28;20469;-77
2022/08/09 09:49:11;;;;;;;4.90;1.90;;;;;;;23.79;55.96;102623.31;5282634;28;20385;-76
2022/08/09 09:51:42;;;;;;;3.42;1.20;;;;;;;24.00;49.43;102626.97;5282199;28;20453;-77
2022/08/09 09:54:18;;;;;;;3.43;1.73;;;;;;;24.16;52.78;102623.69;5281147;28;20037;-75
2022/08/09 09:56:49;;;;;;;4.75;1.80;;;;;;;24.48;54.94;102622.34;5282362;28;20108;-75
2022/08/09 09:59:33;;;;;;;6.03;1.55;;;;;;;24.68;50.03;102633.97;5282233;28;20455;-75
2022/08/09 10:02:05;;;;;;;4.43;1.88;;;;;;;24.61;46.63;102628.03;5282199;28;20024;-75
2022/08/09 10:04:37;;;;;;;;;;;;;;;24.89;47.36;102621.50;5281915;28;20028;-75
2022/08/09 10:07:23;;;;;;;8.33;1.87;;;;;;;24.70;48.85;102625.00;5280509;28;19916;-75
2022/08/09 10:09:56;;;;;;;4.55;1.98;;;;;;;24.75;46.24;102624.78;5280790;28;20443;-76
2022/08/09 10:12:43;;;;;;;4.22;2.08;;;;;;;25.11;45.29;102632.94;5282342;28;20036;-76
2022/08/09 10:15:15;;;;;;;6.00;1.60;;;;;;;25.45;45.65;102631.47;5282165;28;20037;-75
2022/08/09 10:17:49;;;;;;;;;;;;;;;25.74;44.56;102637.19;5282622;28;20047;-76
2022/08/09 10:20:25;;;;;;;2.67;1.50;;;;;;;25.78;48.51;102621.91;5280873;28;20381;-75
2022/08/09 10:22:59;;;;;;;5.28;1.80;;;;;;;26.30;42.38;102616.69;5282533;28;20104;-78
2022/08/09 10:25:33;;;;;;;3.80;1.20;;;;;;;26.98;45.54;102621.22;5281929;28;20032;-75
2022/08/09 10:28:05;;;;;;;6.32;1.88;;;;;;;28.17;37.75;102620.03;5281952;28;20063;-76
2022/08/09 10:30:36;;;;;;;;;;;;;;;30.00;39.57;102624.81;5282552;28;20044;-76
2022/08/09 10:33:08;;;;;;;2.80;1.50;;;;;;;29.82;39.34;102632.28;5281258;28;20014;-76
2022/08/09 10:35:40;;;;;;;;;;;;;;;31.41;36.41;102618.69;5286278;28;20032;-75
2022/08/09 10:38:12;;;;;;;3.97;1.52;;;;;;;29.63;32.86;102615.59;5285826;28;19931;-76
2022/08/09 10:40:44;;;;;;;;;;;;;;;30.60;34.00;102606.47;5286283;28;20025;-76
2022/08/09 10:43:15;;;;;;;3.30;1.60;;;;;;;29.80;34.75;102607.34;5285638;28;20314;-75
2022/08/09 10:45:47;;;;;;;;;;;;;;;31.58;36.29;102613.94;5286437;28;20028;-76
2022/08/09 10:48:32;;;;;;;5.00;1.30;;;;;;;31.05;34.59;102604.22;5286029;28;19932;-75
2022/08/09 10:51:14;;;;;;;5.63;2.10;;;;;;;30.36;32.04;102612.53;5286104;28;20469;-76
2022/08/09 10:54:04;;;;;;;;;;;;;;;31.62;34.32;102605.50;5284668;28;20086;-75
2022/08/09 10:56:38;;;;;;;2.95;1.23;;;;;;;30.57;35.69;102606.66;5284266;28;20289;-76
2022/08/09 10:59:25;;;;;;;2.03;0.93;;;;;;;31.54;34.93;102598.94;5285677;28;20151;-75
2022/08/09 11:01:57;;;;;;;4.80;1.50;;;;;;;31.36;31.12;102601.13;5284018;28;20507;-75
2022/08/09 11:04:29;;;;;;;3.17;1.30;;;;;;;30.98;30.47;102594.88;5285379;28;20064;-75
2022/08/09 11:07:01;;;;;;;3.15;1.30;;;;;;;30.44;32.27;102597.72;5283737;28;20119;-76
2022/08/09 11:09:42;;;;;;;2.28;1.17;;;;;;;30.62;31.87;102590.22;5285262;28;20128;-76
2022/08/09 11:12:15;;;;;;;3.67;1.23;;;;;;;31.14;30.91;102594.63;5285207;28;20037;-76
2022/08/09 11:14:55;;;;;;;3.50;1.33;;;;;;;31.04;31.52;102593.53;5285227;28;20480;-76
2022/08/09 11:17:27;;;;;;;5.72;1.58;;;;;;;31.24;31.28;102590.28;5285099;28;20029;-76
2022/08/09 11:20:00;;;;;;;2.22;1.55;;;;;;;31.72;32.93;102594.03;5285498;28;20107;-76
2022/08/09 11:22:43;;;;;;;5.32;1.48;;;;;;;32.43;33.75;102594.94;5267327;28;20028;-76
2022/08/09 11:25:23;;;;;;;2.88;1.50;;;;;;;32.35;30.08;102597.38;5285412;28;20388;-76
2022/08/09 11:27:55;;;;;;;2.55;1.30;;;;;;;33.21;28.62;102587.91;5285178;28;20048;-76
2022/08/09 11:30:26;;;;;;;2.75;1.40;;;;;;;32.93;32.27;102591.94;5283884;28;20225;-75
2022/08/09 11:33:03;;;;;;;2.72;1.35;;;;;;;32.93;30.88;102591.94;5284923;28;20544;-75
2022/08/09 11:35:57;;;;;;;4.60;1.42;;;;;;;33.83;26.83;102582.84;5283534;28;20120;-75
2022/08/09 11:38:32;;;;;;;2.90;1.00;;;;;;;34.04;29.50;102584.75;5284611;28;20380;-76
2022/08/09 11:41:27;;;;;;;3.42;1.38;;;;;;;34.73;28.66;102578.78;5284863;28;20411;-75
2022/08/09 11:43:59;;;;;;;3.42;1.52;;;;;;;34.12;28.13;102577.66;5282772;28;20044;-75
2022/08/09 11:46:53;;;;;;;3.33;1.58;;;;;;;34.65;26.30;102573.19;5283733;28;20033;-75
2022/08/09 11:49:57;;;;;;;5.60;1.58;;;;;;;35.33;28.80;102569.91;5285202;28;20024;-75
2022/08/09 11:52:30;;;;;;;6.53;1.20;;;;;;;35.21;24.06;102566.41;5282978;28;20136;-76
2022/08/09 11:55:36;;;;;;;3.63;1.40;;;;;;;35.91;25.15;102572.66;5284677;28;20338;-75
2022/08/09 11:58:14;;;;;;;8.10;1.73;;;;;;;35.59;24.81;102554.78;5283883;28;20028;-76